sensor_id;sensor_type;location;lat;lon;timestamp;P1;durP1;ratioP1;P2;durP2;ratioP2
4698;SDS011;33708;49.466;11.176;2022-09-27T00:00:42;10.47;;;2.43;;
4698;SDS011;33708;49.466;11.176;2022-09-27T00:03:08;9.73;;;2.60;;
4698;SDS011;33708;49.466;11.176;2022-09-27T00:05:35;10.10;;;3.33;;
4698;SDS011;33708;49.466;11.176;2022-09-27T00:08:01;9.53;;;3.20;;
4698;SDS011;33708;49.466;11.176;2022-09-27T00:10:27;14.13;;;3.40;;
4698;SDS011;33708;49.466;11.176;2022-09-27T00:12:53;8.13;;;2.83;;
4698;SDS011;33708;49.466;11.176;2022-09-27T00:15:19;10.17;;;3.27;;
4698;SDS011;33708;49.466;11.176;2022-09-27T00:17:45;8.50;;;2.77;;
4698;SDS011;33708;49.466;11.176;2022-09-27T00:20:15;8.03;;;2.97;;
4698;SDS011;33708;49.466;11.176;2022-09-27T00:22:41;9.50;;;3.23;;
4698;SDS011;33708;49.466;11.176;2022-09-27T00:25:07;11.30;;;3.73;;
4698;SDS011;33708;49.466;11.176;2022-09-27T00:27:33;9.50;;;3.20;;
4698;SDS011;33708;49.466;11.176;2022-09-27T00:29:58;10.33;;;3.30;;
4698;SDS011;33708;49.466;11.176;2022-09-27T00:32:24;9.03;;;3.17;;
4698;SDS011;33708;49.466;11.176;2022-09-27T00:34:50;7.50;;;2.67;;
4698;SDS011;33708;49.466;11.176;2022-09-27T00:37:15;8.07;;;3.20;;
4698;SDS011;33708;49.466;11.176;2022-09-27T00:39:41;9.10;;;3.07;;
4698;SDS011;33708;49.466;11.176;2022-09-27T00:42:11;11.03;;;4.03;;
4698;SDS011;33708;49.466;11.176;2022-09-27T00:52:14;8.23;;;3.60;;
4698;SDS011;33708;49.466;11.176;2022-09-27T00:54:45;8.63;;;2.97;;
4698;SDS011;33708;49.466;11.176;2022-09-27T00:57:15;12.67;;;3.33;;
4698;SDS011;33708;49.466;11.176;2022-09-27T00:59:45;9.50;;;4.00;;
4698;SDS011;33708;49.466;11.176;2022-09-27T01:02:33;9.40;;;3.63;;
4698;SDS011;33708;49.466;11.176;2022-09-27T01:05:02;13.63;;;4.00;;
4698;SDS011;33708;49.466;11.176;2022-09-27T01:07:32;11.60;;;3.83;;
4698;SDS011;33708;49.466;11.176;2022-09-27T01:09:58;8.73;;;2.83;;
4698;SDS011;33708;49.466;11.176;2022-09-27T01:15:22;8.03;;;3.20;;
4698;SDS011;33708;49.466;11.176;2022-09-27T01:31:28;10.03;;;3.13;;
4698;SDS011;33708;49.466;11.176;2022-09-27T01:39:48;10.83;;;2.60;;
4698;SDS011;33708;49.466;11.176;2022-09-27T01:42:22;8.60;;;3.10;;
4698;SDS011;33708;49.466;11.176;2022-09-27T01:45:02;9.00;;;2.77;;
4698;SDS011;33708;49.466;11.176;2022-09-27T01:47:35;6.60;;;2.20;;
4698;SDS011;33708;49.466;11.176;2022-09-27T01:50:06;10.70;;;2.53;;
4698;SDS011;33708;49.466;11.176;2022-09-27T01:52:51;7.53;;;2.10;;
4698;SDS011;33708;49.466;11.176;2022-09-27T01:55:24;7.27;;;2.20;;
4698;SDS011;33708;49.466;11.176;2022-09-27T01:58:00;6.20;;;2.00;;
4698;SDS011;33708;49.466;11.176;2022-09-27T02:00:43;6.70;;;1.90;;
4698;SDS011;33708;49.466;11.176;2022-09-27T02:03:13;6.50;;;2.10;;
4698;SDS011;33708;49.466;11.176;2022-09-27T02:05:57;6.87;;;2.00;;
4698;SDS011;33708;49.466;11.176;2022-09-27T02:08:36;9.23;;;2.17;;
4698;SDS011;33708;49.466;11.176;2022-09-27T02:11:07;15.73;;;1.80;;
4698;SDS011;33708;49.466;11.176;2022-09-27T02:19:13;7.40;;;1.60;;
4698;SDS011;33708;49.466;11.176;2022-09-27T02:21:52;6.03;;;1.50;;
4698;SDS011;33708;49.466;11.176;2022-09-27T02:24:43;5.50;;;1.37;;
4698;SDS011;33708;49.466;11.176;2022-09-27T02:27:23;7.00;;;1.70;;
4698;SDS011;33708;49.466;11.176;2022-09-27T02:29:57;5.60;;;1.40;;
4698;SDS011;33708;49.466;11.176;2022-09-27T02:32:26;5.60;;;1.47;;
4698;SDS011;33708;49.466;11.176;2022-09-27T02:34:53;6.07;;;1.23;;
4698;SDS011;33708;49.466;11.176;2022-09-27T02:37:22;7.37;;;1.30;;
4698;SDS011;33708;49.466;11.176;2022-09-27T02:39:47;8.13;;;1.60;;
4698;SDS011;33708;49.466;11.176;2022-09-27T02:42:13;7.23;;;1.20;;
4698;SDS011;33708;49.466;11.176;2022-09-27T02:44:39;6.50;;;1.30;;
4698;SDS011;33708;49.466;11.176;2022-09-27T02:49:47;6.13;;;1.33;;
4698;SDS011;33708;49.466;11.176;2022-09-27T02:52:22;6.30;;;1.40;;
4698;SDS011;33708;49.466;11.176;2022-09-27T03:01:25;6.83;;;1.30;;
4698;SDS011;33708;49.466;11.176;2022-09-27T03:04:01;8.97;;;1.60;;
4698;SDS011;33708;49.466;11.176;2022-09-27T03:06:41;7.37;;;1.43;;
4698;SDS011;33708;49.466;11.176;2022-09-27T03:09:20;8.03;;;1.43;;
4698;SDS011;33708;49.466;11.176;2022-09-27T03:11:47;7.40;;;1.47;;
4698;SDS011;33708;49.466;11.176;2022-09-27T03:14:13;9.80;;;1.17;;
4698;SDS011;33708;49.466;11.176;2022-09-27T03:16:39;7.03;;;1.30;;
4698;SDS011;33708;49.466;11.176;2022-09-27T03:19:05;8.90;;;1.63;;
4698;SDS011;33708;49.466;11.176;2022-09-27T03:21:31;5.57;;;1.10;;
4698;SDS011;33708;49.466;11.176;2022-09-27T03:23:56;6.47;;;1.40;;
4698;SDS011;33708;49.466;11.176;2022-09-27T03:26:22;10.00;;;1.50;;
4698;SDS011;33708;49.466;11.176;2022-09-27T03:28:48;9.17;;;1.57;;
4698;SDS011;33708;49.466;11.176;2022-09-27T03:31:13;9.30;;;1.63;;
4698;SDS011;33708;49.466;11.176;2022-09-27T03:33:39;6.27;;;1.70;;
4698;SDS011;33708;49.466;11.176;2022-09-27T03:36:05;6.70;;;1.77;;
4698;SDS011;33708;49.466;11.176;2022-09-27T03:38:31;6.20;;;1.37;;
4698;SDS011;33708;49.466;11.176;2022-09-27T03:40:56;6.83;;;1.83;;
4698;SDS011;33708;49.466;11.176;2022-09-27T03:43:23;9.13;;;1.77;;
4698;SDS011;33708;49.466;11.176;2022-09-27T03:45:49;8.97;;;2.03;;
4698;SDS011;33708;49.466;11.176;2022-09-27T03:48:14;6.07;;;1.53;;
4698;SDS011;33708;49.466;11.176;2022-09-27T03:50:40;8.27;;;2.20;;
4698;SDS011;33708;49.466;11.176;2022-09-27T03:53:06;12.80;;;1.70;;
4698;SDS011;33708;49.466;11.176;2022-09-27T03:55:32;11.23;;;2.40;;
4698;SDS011;33708;49.466;11.176;2022-09-27T03:57:59;8.17;;;1.73;;
4698;SDS011;33708;49.466;11.176;2022-09-27T04:00:25;13.20;;;1.87;;
4698;SDS011;33708;49.466;11.176;2022-09-27T04:02:51;6.50;;;1.80;;
4698;SDS011;33708;49.466;11.176;2022-09-27T04:05:17;7.70;;;2.00;;
4698;SDS011;33708;49.466;11.176;2022-09-27T04:07:46;6.00;;;1.60;;
4698;SDS011;33708;49.466;11.176;2022-09-27T04:10:13;6.10;;;1.40;;
4698;SDS011;33708;49.466;11.176;2022-09-27T04:12:39;9.50;;;1.67;;
4698;SDS011;33708;49.466;11.176;2022-09-27T04:15:05;6.97;;;1.40;;
4698;SDS011;33708;49.466;11.176;2022-09-27T04:17:32;5.30;;;1.20;;
4698;SDS011;33708;49.466;11.176;2022-09-27T04:19:58;6.10;;;1.50;;
4698;SDS011;33708;49.466;11.176;2022-09-27T04:22:24;6.00;;;1.20;;
4698;SDS011;33708;49.466;11.176;2022-09-27T04:24:50;6.37;;;1.17;;
4698;SDS011;33708;49.466;11.176;2022-09-27T04:27:15;6.50;;;1.23;;
4698;SDS011;33708;49.466;11.176;2022-09-27T04:29:41;5.70;;;1.30;;
4698;SDS011;33708;49.466;11.176;2022-09-27T04:32:09;7.50;;;1.17;;
4698;SDS011;33708;49.466;11.176;2022-09-27T04:34:38;6.90;;;1.20;;
4698;SDS011;33708;49.466;11.176;2022-09-27T04:37:23;8.27;;;1.37;;
4698;SDS011;33708;49.466;11.176;2022-09-27T04:39:49;10.73;;;1.57;;
4698;SDS011;33708;49.466;11.176;2022-09-27T04:42:15;9.30;;;1.30;;
4698;SDS011;33708;49.466;11.176;2022-09-27T04:44:42;5.40;;;1.00;;
4698;SDS011;33708;49.466;11.176;2022-09-27T04:47:08;7.17;;;1.53;;
4698;SDS011;33708;49.466;11.176;2022-09-27T04:49:34;7.17;;;1.07;;
4698;SDS011;33708;49.466;11.176;2022-09-27T04:52:00;5.20;;;1.10;;
4698;SDS011;33708;49.466;11.176;2022-09-27T04:54:26;5.70;;;1.07;;
4698;SDS011;33708;49.466;11.176;2022-09-27T04:56:51;6.40;;;1.10;;
4698;SDS011;33708;49.466;11.176;2022-09-27T04:59:17;7.97;;;1.50;;
4698;SDS011;33708;49.466;11.176;2022-09-27T05:01:42;8.50;;;1.57;;
4698;SDS011;33708;49.466;11.176;2022-09-27T05:04:09;10.53;;;2.47;;
4698;SDS011;33708;49.466;11.176;2022-09-27T05:06:35;9.40;;;1.50;;
4698;SDS011;33708;49.466;11.176;2022-09-27T05:09:00;9.70;;;1.67;;
4698;SDS011;33708;49.466;11.176;2022-09-27T05:11:26;7.50;;;1.50;;
4698;SDS011;33708;49.466;11.176;2022-09-27T05:13:52;8.83;;;1.60;;
4698;SDS011;33708;49.466;11.176;2022-09-27T05:16:17;10.23;;;2.03;;
4698;SDS011;33708;49.466;11.176;2022-09-27T05:18:44;10.70;;;2.50;;
4698;SDS011;33708;49.466;11.176;2022-09-27T05:21:10;12.10;;;2.20;;
4698;SDS011;33708;49.466;11.176;2022-09-27T05:23:36;11.03;;;2.40;;
4698;SDS011;33708;49.466;11.176;2022-09-27T05:26:05;10.30;;;2.10;;
4698;SDS011;33708;49.466;11.176;2022-09-27T05:28:31;9.20;;;1.97;;
4698;SDS011;33708;49.466;11.176;2022-09-27T05:30:59;8.60;;;2.30;;
4698;SDS011;33708;49.466;11.176;2022-09-27T05:33:26;8.07;;;2.00;;
4698;SDS011;33708;49.466;11.176;2022-09-27T05:35:55;10.53;;;1.70;;
4698;SDS011;33708;49.466;11.176;2022-09-27T05:38:22;8.60;;;1.80;;
4698;SDS011;33708;49.466;11.176;2022-09-27T05:40:49;8.33;;;2.30;;
4698;SDS011;33708;49.466;11.176;2022-09-27T05:43:18;7.40;;;1.70;;
4698;SDS011;33708;49.466;11.176;2022-09-27T05:45:45;8.13;;;1.53;;
4698;SDS011;33708;49.466;11.176;2022-09-27T05:48:11;5.20;;;0.90;;
4698;SDS011;33708;49.466;11.176;2022-09-27T05:50:38;10.30;;;1.50;;
4698;SDS011;33708;49.466;11.176;2022-09-27T05:53:04;6.20;;;1.47;;
4698;SDS011;33708;49.466;11.176;2022-09-27T05:55:30;7.67;;;1.40;;
4698;SDS011;33708;49.466;11.176;2022-09-27T05:58:00;13.30;;;1.67;;
4698;SDS011;33708;49.466;11.176;2022-09-27T06:00:28;11.70;;;1.70;;
4698;SDS011;33708;49.466;11.176;2022-09-27T06:02:55;7.87;;;1.90;;
4698;SDS011;33708;49.466;11.176;2022-09-27T06:05:23;7.70;;;1.40;;
4698;SDS011;33708;49.466;11.176;2022-09-27T06:07:49;9.50;;;1.90;;
4698;SDS011;33708;49.466;11.176;2022-09-27T06:10:16;7.30;;;1.50;;
4698;SDS011;33708;49.466;11.176;2022-09-27T06:12:43;7.00;;;1.40;;
4698;SDS011;33708;49.466;11.176;2022-09-27T06:15:09;6.87;;;1.50;;
4698;SDS011;33708;49.466;11.176;2022-09-27T06:17:35;6.50;;;1.30;;
4698;SDS011;33708;49.466;11.176;2022-09-27T06:20:02;6.87;;;1.50;;
4698;SDS011;33708;49.466;11.176;2022-09-27T06:22:28;8.07;;;2.03;;
4698;SDS011;33708;49.466;11.176;2022-09-27T06:24:54;6.20;;;1.50;;
4698;SDS011;33708;49.466;11.176;2022-09-27T06:27:20;8.43;;;2.17;;
4698;SDS011;33708;49.466;11.176;2022-09-27T06:29:45;7.53;;;1.43;;
4698;SDS011;33708;49.466;11.176;2022-09-27T06:32:11;10.60;;;1.53;;
4698;SDS011;33708;49.466;11.176;2022-09-27T06:34:37;8.83;;;1.50;;
4698;SDS011;33708;49.466;11.176;2022-09-27T06:37:03;10.60;;;1.37;;
4698;SDS011;33708;49.466;11.176;2022-09-27T06:39:29;6.07;;;1.30;;
4698;SDS011;33708;49.466;11.176;2022-09-27T06:41:57;9.10;;;2.03;;
4698;SDS011;33708;49.466;11.176;2022-09-27T06:44:24;6.60;;;1.50;;
4698;SDS011;33708;49.466;11.176;2022-09-27T06:46:50;7.93;;;1.67;;
4698;SDS011;33708;49.466;11.176;2022-09-27T06:49:17;6.63;;;1.40;;
4698;SDS011;33708;49.466;11.176;2022-09-27T06:51:43;7.63;;;1.80;;
4698;SDS011;33708;49.466;11.176;2022-09-27T06:54:09;7.67;;;1.40;;
4698;SDS011;33708;49.466;11.176;2022-09-27T06:56:35;6.93;;;1.57;;
4698;SDS011;33708;49.466;11.176;2022-09-27T06:59:01;8.20;;;1.63;;
4698;SDS011;33708;49.466;11.176;2022-09-27T07:01:53;9.13;;;1.73;;
4698;SDS011;33708;49.466;11.176;2022-09-27T07:04:18;7.13;;;1.70;;
4698;SDS011;33708;49.466;11.176;2022-09-27T07:06:45;7.37;;;1.70;;
4698;SDS011;33708;49.466;11.176;2022-09-27T07:09:11;6.00;;;1.57;;
4698;SDS011;33708;49.466;11.176;2022-09-27T07:11:37;8.00;;;1.57;;
4698;SDS011;33708;49.466;11.176;2022-09-27T07:14:02;6.33;;;1.57;;
4698;SDS011;33708;49.466;11.176;2022-09-27T07:16:28;5.47;;;1.00;;
4698;SDS011;33708;49.466;11.176;2022-09-27T07:18:59;5.90;;;1.33;;
4698;SDS011;33708;49.466;11.176;2022-09-27T07:21:25;8.47;;;1.40;;
4698;SDS011;33708;49.466;11.176;2022-09-27T07:23:50;6.03;;;1.13;;
4698;SDS011;33708;49.466;11.176;2022-09-27T07:26:16;5.40;;;0.80;;
4698;SDS011;33708;49.466;11.176;2022-09-27T07:28:42;11.43;;;1.03;;
4698;SDS011;33708;49.466;11.176;2022-09-27T07:31:10;8.50;;;1.33;;
4698;SDS011;33708;49.466;11.176;2022-09-27T07:33:36;6.07;;;1.00;;
4698;SDS011;33708;49.466;11.176;2022-09-27T07:36:07;6.40;;;1.20;;
4698;SDS011;33708;49.466;11.176;2022-09-27T07:38:34;8.30;;;1.17;;
4698;SDS011;33708;49.466;11.176;2022-09-27T07:41:04;6.80;;;1.30;;
4698;SDS011;33708;49.466;11.176;2022-09-27T07:43:31;5.77;;;1.17;;
4698;SDS011;33708;49.466;11.176;2022-09-27T07:45:57;4.73;;;0.80;;
4698;SDS011;33708;49.466;11.176;2022-09-27T07:48:22;5.53;;;1.10;;
4698;SDS011;33708;49.466;11.176;2022-09-27T07:50:48;5.07;;;1.00;;
4698;SDS011;33708;49.466;11.176;2022-09-27T07:53:14;5.37;;;0.93;;
4698;SDS011;33708;49.466;11.176;2022-09-27T07:55:40;5.30;;;1.00;;
4698;SDS011;33708;49.466;11.176;2022-09-27T07:58:07;5.60;;;0.90;;
4698;SDS011;33708;49.466;11.176;2022-09-27T08:00:35;5.37;;;0.97;;
4698;SDS011;33708;49.466;11.176;2022-09-27T08:03:09;5.20;;;0.80;;
4698;SDS011;33708;49.466;11.176;2022-09-27T08:05:39;6.83;;;1.13;;
4698;SDS011;33708;49.466;11.176;2022-09-27T08:08:04;6.13;;;0.93;;
4698;SDS011;33708;49.466;11.176;2022-09-27T08:10:31;5.97;;;1.23;;
4698;SDS011;33708;49.466;11.176;2022-09-27T08:12:57;6.47;;;1.40;;
4698;SDS011;33708;49.466;11.176;2022-09-27T08:15:25;6.80;;;1.10;;
4698;SDS011;33708;49.466;11.176;2022-09-27T08:17:52;5.57;;;1.17;;
4698;SDS011;33708;49.466;11.176;2022-09-27T08:20:18;5.80;;;1.00;;
4698;SDS011;33708;49.466;11.176;2022-09-27T08:22:44;5.53;;;0.93;;
4698;SDS011;33708;49.466;11.176;2022-09-27T08:25:10;5.33;;;0.93;;
4698;SDS011;33708;49.466;11.176;2022-09-27T08:27:36;5.33;;;1.00;;
4698;SDS011;33708;49.466;11.176;2022-09-27T08:30:02;6.20;;;1.30;;
4698;SDS011;33708;49.466;11.176;2022-09-27T08:32:28;5.57;;;0.90;;
4698;SDS011;33708;49.466;11.176;2022-09-27T08:34:55;5.40;;;1.00;;
4698;SDS011;33708;49.466;11.176;2022-09-27T08:37:21;5.60;;;1.20;;
4698;SDS011;33708;49.466;11.176;2022-09-27T08:39:46;6.13;;;1.13;;
4698;SDS011;33708;49.466;11.176;2022-09-27T08:45:12;5.40;;;0.93;;
4698;SDS011;33708;49.466;11.176;2022-09-27T08:48:01;6.70;;;1.00;;
4698;SDS011;33708;49.466;11.176;2022-09-27T08:51:03;5.63;;;0.70;;
4698;SDS011;33708;49.466;11.176;2022-09-27T08:53:24;5.20;;;0.80;;
4698;SDS011;33708;49.466;11.176;2022-09-27T08:55:53;5.80;;;1.00;;
4698;SDS011;33708;49.466;11.176;2022-09-27T09:00:59;5.10;;;0.70;;
4698;SDS011;33708;49.466;11.176;2022-09-27T09:03:28;5.87;;;0.70;;
4698;SDS011;33708;49.466;11.176;2022-09-27T09:09:00;5.00;;;0.80;;
4698;SDS011;33708;49.466;11.176;2022-09-27T09:33:12;5.50;;;0.90;;
4698;SDS011;33708;49.466;11.176;2022-09-27T09:38:41;5.57;;;0.90;;
4698;SDS011;33708;49.466;11.176;2022-09-27T09:46:51;6.00;;;1.30;;
4698;SDS011;33708;49.466;11.176;2022-09-27T09:49:25;6.07;;;1.10;;
4698;SDS011;33708;49.466;11.176;2022-09-27T09:52:04;5.60;;;1.07;;
4698;SDS011;33708;49.466;11.176;2022-09-27T09:54:43;5.10;;;0.90;;
4698;SDS011;33708;49.466;11.176;2022-09-27T09:57:30;6.47;;;1.10;;
4698;SDS011;33708;49.466;11.176;2022-09-27T10:00:15;7.53;;;1.10;;
4698;SDS011;33708;49.466;11.176;2022-09-27T10:02:43;5.73;;;1.20;;
4698;SDS011;33708;49.466;11.176;2022-09-27T10:05:14;5.70;;;1.30;;
4698;SDS011;33708;49.466;11.176;2022-09-27T10:07:43;5.50;;;1.13;;
4698;SDS011;33708;49.466;11.176;2022-09-27T10:10:12;8.27;;;1.20;;
4698;SDS011;33708;49.466;11.176;2022-09-27T10:12:40;8.13;;;1.10;;
4698;SDS011;33708;49.466;11.176;2022-09-27T10:15:06;8.27;;;1.20;;
4698;SDS011;33708;49.466;11.176;2022-09-27T10:17:39;6.50;;;1.10;;
4698;SDS011;33708;49.466;11.176;2022-09-27T10:20:13;6.57;;;1.10;;
4698;SDS011;33708;49.466;11.176;2022-09-27T10:22:48;5.40;;;1.00;;
4698;SDS011;33708;49.466;11.176;2022-09-27T10:25:20;5.77;;;0.70;;
4698;SDS011;33708;49.466;11.176;2022-09-27T10:27:49;5.27;;;0.80;;
4698;SDS011;33708;49.466;11.176;2022-09-27T10:32:53;5.30;;;0.60;;
4698;SDS011;33708;49.466;11.176;2022-09-27T10:40:48;5.30;;;0.90;;
4698;SDS011;33708;49.466;11.176;2022-09-27T10:43:25;7.13;;;0.90;;
4698;SDS011;33708;49.466;11.176;2022-09-27T10:48:29;5.53;;;0.87;;
4698;SDS011;33708;49.466;11.176;2022-09-27T10:50:55;5.90;;;1.20;;
4698;SDS011;33708;49.466;11.176;2022-09-27T10:53:23;7.07;;;1.13;;
4698;SDS011;33708;49.466;11.176;2022-09-27T10:55:50;5.27;;;0.93;;
4698;SDS011;33708;49.466;11.176;2022-09-27T10:58:17;6.30;;;1.10;;
4698;SDS011;33708;49.466;11.176;2022-09-27T11:01:03;6.63;;;1.20;;
4698;SDS011;33708;49.466;11.176;2022-09-27T11:03:36;5.57;;;0.90;;
4698;SDS011;33708;49.466;11.176;2022-09-27T11:08:49;4.90;;;0.60;;
4698;SDS011;33708;49.466;11.176;2022-09-27T11:14:03;6.40;;;0.80;;
4698;SDS011;33708;49.466;11.176;2022-09-27T11:27:42;5.37;;;0.90;;
4698;SDS011;33708;49.466;11.176;2022-09-27T11:35:29;5.70;;;0.80;;
4698;SDS011;33708;49.466;11.176;2022-09-27T11:46:13;6.50;;;1.53;;
4698;SDS011;33708;49.466;11.176;2022-09-27T11:54:34;6.37;;;1.17;;
4698;SDS011;33708;49.466;11.176;2022-09-27T11:57:30;5.80;;;1.07;;
4698;SDS011;33708;49.466;11.176;2022-09-27T12:05:35;5.33;;;1.00;;
4698;SDS011;33708;49.466;11.176;2022-09-27T12:08:38;5.33;;;0.60;;
4698;SDS011;33708;49.466;11.176;2022-09-27T12:11:11;6.40;;;1.07;;
4698;SDS011;33708;49.466;11.176;2022-09-27T12:13:56;7.90;;;1.00;;
4698;SDS011;33708;49.466;11.176;2022-09-27T12:16:27;5.60;;;0.83;;
4698;SDS011;33708;49.466;11.176;2022-09-27T12:18:55;5.77;;;1.03;;
4698;SDS011;33708;49.466;11.176;2022-09-27T12:21:23;5.17;;;0.60;;
4698;SDS011;33708;49.466;11.176;2022-09-27T12:23:53;5.97;;;0.73;;
4698;SDS011;33708;49.466;11.176;2022-09-27T12:29:01;6.20;;;0.80;;
4698;SDS011;33708;49.466;11.176;2022-09-27T12:31:35;4.90;;;0.70;;
4698;SDS011;33708;49.466;11.176;2022-09-27T12:37:07;6.90;;;0.80;;
4698;SDS011;33708;49.466;11.176;2022-09-27T12:39:52;5.60;;;0.90;;
4698;SDS011;33708;49.466;11.176;2022-09-27T12:42:32;6.07;;;1.13;;
4698;SDS011;33708;49.466;11.176;2022-09-27T12:45:04;6.50;;;1.00;;
4698;SDS011;33708;49.466;11.176;2022-09-27T12:47:42;6.30;;;1.20;;
4698;SDS011;33708;49.466;11.176;2022-09-27T12:53:02;5.97;;;1.10;;
4698;SDS011;33708;49.466;11.176;2022-09-27T13:14:38;6.13;;;1.30;;
4698;SDS011;33708;49.466;11.176;2022-09-27T13:19:57;6.50;;;1.80;;
4698;SDS011;33708;49.466;11.176;2022-09-27T13:24:52;6.63;;;1.67;;
4698;SDS011;33708;49.466;11.176;2022-09-27T13:29:49;6.50;;;1.30;;
4698;SDS011;33708;49.466;11.176;2022-09-27T13:32:16;6.37;;;1.40;;
4698;SDS011;33708;49.466;11.176;2022-09-27T13:34:57;11.20;;;1.20;;
4698;SDS011;33708;49.466;11.176;2022-09-27T13:42:53;6.30;;;1.47;;
4698;SDS011;33708;49.466;11.176;2022-09-27T13:51:04;8.13;;;1.30;;
4698;SDS011;33708;49.466;11.176;2022-09-27T13:53:37;8.73;;;1.53;;
4698;SDS011;33708;49.466;11.176;2022-09-27T13:56:04;6.53;;;1.20;;
4698;SDS011;33708;49.466;11.176;2022-09-27T13:58:50;6.73;;;1.40;;
4698;SDS011;33708;49.466;11.176;2022-09-27T14:01:27;7.50;;;1.60;;
4698;SDS011;33708;49.466;11.176;2022-09-27T14:04:09;6.53;;;1.30;;
4698;SDS011;33708;49.466;11.176;2022-09-27T14:06:42;6.70;;;1.33;;
4698;SDS011;33708;49.466;11.176;2022-09-27T14:09:19;10.23;;;1.73;;
4698;SDS011;33708;49.466;11.176;2022-09-27T14:11:54;6.67;;;1.40;;
4698;SDS011;33708;49.466;11.176;2022-09-27T14:14:28;7.03;;;1.37;;
4698;SDS011;33708;49.466;11.176;2022-09-27T14:16:59;6.23;;;1.30;;
4698;SDS011;33708;49.466;11.176;2022-09-27T14:19:26;8.30;;;1.20;;
4698;SDS011;33708;49.466;11.176;2022-09-27T14:21:52;5.40;;;1.00;;
4698;SDS011;33708;49.466;11.176;2022-09-27T14:24:23;7.70;;;1.30;;
4698;SDS011;33708;49.466;11.176;2022-09-27T14:26:50;6.93;;;0.93;;
4698;SDS011;33708;49.466;11.176;2022-09-27T14:29:30;7.50;;;1.57;;
4698;SDS011;33708;49.466;11.176;2022-09-27T14:32:05;7.90;;;1.30;;
4698;SDS011;33708;49.466;11.176;2022-09-27T14:34:36;8.90;;;1.63;;
4698;SDS011;33708;49.466;11.176;2022-09-27T14:37:03;8.57;;;1.03;;
4698;SDS011;33708;49.466;11.176;2022-09-27T14:39:55;8.20;;;1.37;;
4698;SDS011;33708;49.466;11.176;2022-09-27T14:42:23;6.90;;;1.10;;
4698;SDS011;33708;49.466;11.176;2022-09-27T14:44:52;8.00;;;1.37;;
4698;SDS011;33708;49.466;11.176;2022-09-27T14:47:25;6.60;;;1.27;;
4698;SDS011;33708;49.466;11.176;2022-09-27T14:52:30;6.83;;;1.47;;
4698;SDS011;33708;49.466;11.176;2022-09-27T14:55:00;5.97;;;1.43;;
4698;SDS011;33708;49.466;11.176;2022-09-27T14:57:27;6.30;;;1.10;;
4698;SDS011;33708;49.466;11.176;2022-09-27T14:59:56;5.33;;;1.00;;
4698;SDS011;33708;49.466;11.176;2022-09-27T15:02:25;6.27;;;1.00;;
4698;SDS011;33708;49.466;11.176;2022-09-27T15:04:52;6.07;;;1.07;;
4698;SDS011;33708;49.466;11.176;2022-09-27T15:07:18;6.37;;;1.20;;
4698;SDS011;33708;49.466;11.176;2022-09-27T15:09:46;6.33;;;1.30;;
4698;SDS011;33708;49.466;11.176;2022-09-27T15:12:15;6.47;;;1.00;;
4698;SDS011;33708;49.466;11.176;2022-09-27T15:14:49;7.50;;;1.30;;
4698;SDS011;33708;49.466;11.176;2022-09-27T15:17:16;5.63;;;1.17;;
4698;SDS011;33708;49.466;11.176;2022-09-27T15:20:17;5.67;;;1.10;;
4698;SDS011;33708;49.466;11.176;2022-09-27T15:22:44;5.33;;;0.83;;
4698;SDS011;33708;49.466;11.176;2022-09-27T15:25:15;6.60;;;1.00;;
4698;SDS011;33708;49.466;11.176;2022-09-27T15:27:50;5.57;;;0.87;;
4698;SDS011;33708;49.466;11.176;2022-09-27T15:30:19;5.83;;;1.00;;
4698;SDS011;33708;49.466;11.176;2022-09-27T15:32:51;6.23;;;1.40;;
4698;SDS011;33708;49.466;11.176;2022-09-27T15:35:26;8.13;;;1.87;;
4698;SDS011;33708;49.466;11.176;2022-09-27T15:38:40;6.40;;;1.00;;
4698;SDS011;33708;49.466;11.176;2022-09-27T15:43:21;7.30;;;1.30;;
4698;SDS011;33708;49.466;11.176;2022-09-27T15:45:57;6.03;;;1.20;;
4698;SDS011;33708;49.466;11.176;2022-09-27T15:48:26;9.70;;;1.53;;
4698;SDS011;33708;49.466;11.176;2022-09-27T15:50:57;17.50;;;1.30;;
4698;SDS011;33708;49.466;11.176;2022-09-27T15:56:04;8.20;;;1.50;;
4698;SDS011;33708;49.466;11.176;2022-09-27T15:58:30;6.67;;;1.30;;
4698;SDS011;33708;49.466;11.176;2022-09-27T16:01:00;9.13;;;1.80;;
4698;SDS011;33708;49.466;11.176;2022-09-27T16:03:28;10.27;;;1.30;;
4698;SDS011;33708;49.466;11.176;2022-09-27T16:05:57;8.37;;;2.07;;
4698;SDS011;33708;49.466;11.176;2022-09-27T16:08:25;9.87;;;1.87;;
4698;SDS011;33708;49.466;11.176;2022-09-27T16:10:52;8.50;;;3.00;;
4698;SDS011;33708;49.466;11.176;2022-09-27T16:13:19;8.60;;;2.83;;
4698;SDS011;33708;49.466;11.176;2022-09-27T16:15:46;8.17;;;2.00;;
4698;SDS011;33708;49.466;11.176;2022-09-27T16:18:12;9.13;;;2.03;;
4698;SDS011;33708;49.466;11.176;2022-09-27T16:20:38;9.20;;;2.10;;
4698;SDS011;33708;49.466;11.176;2022-09-27T16:23:03;8.60;;;2.70;;
4698;SDS011;33708;49.466;11.176;2022-09-27T16:25:29;11.03;;;2.70;;
4698;SDS011;33708;49.466;11.176;2022-09-27T16:28:01;8.70;;;2.80;;
4698;SDS011;33708;49.466;11.176;2022-09-27T16:30:29;8.40;;;2.07;;
4698;SDS011;33708;49.466;11.176;2022-09-27T16:32:57;7.03;;;1.70;;
4698;SDS011;33708;49.466;11.176;2022-09-27T16:35:23;9.07;;;3.40;;
4698;SDS011;33708;49.466;11.176;2022-09-27T16:37:49;8.67;;;3.30;;
4698;SDS011;33708;49.466;11.176;2022-09-27T16:40:15;7.63;;;2.60;;
4698;SDS011;33708;49.466;11.176;2022-09-27T16:42:42;7.57;;;1.90;;
4698;SDS011;33708;49.466;11.176;2022-09-27T16:45:09;11.70;;;2.40;;
4698;SDS011;33708;49.466;11.176;2022-09-27T16:47:35;7.37;;;2.67;;
4698;SDS011;33708;49.466;11.176;2022-09-27T16:50:01;8.27;;;1.70;;
4698;SDS011;33708;49.466;11.176;2022-09-27T16:52:46;8.50;;;1.60;;
4698;SDS011;33708;49.466;11.176;2022-09-27T16:55:14;10.53;;;2.00;;
4698;SDS011;33708;49.466;11.176;2022-09-27T16:57:45;10.17;;;1.67;;
4698;SDS011;33708;49.466;11.176;2022-09-27T17:00:11;9.30;;;1.80;;
4698;SDS011;33708;49.466;11.176;2022-09-27T17:02:37;7.53;;;2.03;;
4698;SDS011;33708;49.466;11.176;2022-09-27T17:05:03;8.20;;;2.00;;
4698;SDS011;33708;49.466;11.176;2022-09-27T17:07:29;6.90;;;2.17;;
4698;SDS011;33708;49.466;11.176;2022-09-27T17:09:54;8.50;;;2.80;;
4698;SDS011;33708;49.466;11.176;2022-09-27T17:12:21;9.40;;;2.00;;
4698;SDS011;33708;49.466;11.176;2022-09-27T17:14:48;6.87;;;1.70;;
4698;SDS011;33708;49.466;11.176;2022-09-27T17:17:14;16.73;;;1.90;;
4698;SDS011;33708;49.466;11.176;2022-09-27T17:19:39;6.23;;;1.50;;
4698;SDS011;33708;49.466;11.176;2022-09-27T17:22:05;10.47;;;1.97;;
4698;SDS011;33708;49.466;11.176;2022-09-27T17:24:31;9.33;;;2.80;;
4698;SDS011;33708;49.466;11.176;2022-09-27T17:26:57;6.43;;;1.90;;
4698;SDS011;33708;49.466;11.176;2022-09-27T17:29:22;6.33;;;1.90;;
4698;SDS011;33708;49.466;11.176;2022-09-27T17:31:49;8.43;;;2.23;;
4698;SDS011;33708;49.466;11.176;2022-09-27T17:34:14;7.30;;;2.17;;
4698;SDS011;33708;49.466;11.176;2022-09-27T17:36:41;6.70;;;1.47;;
4698;SDS011;33708;49.466;11.176;2022-09-27T17:39:12;7.87;;;1.37;;
4698;SDS011;33708;49.466;11.176;2022-09-27T17:41:39;6.07;;;1.30;;
4698;SDS011;33708;49.466;11.176;2022-09-27T17:44:08;7.40;;;2.20;;
4698;SDS011;33708;49.466;11.176;2022-09-27T17:46:36;9.73;;;1.87;;
4698;SDS011;33708;49.466;11.176;2022-09-27T17:49:02;9.80;;;2.97;;
4698;SDS011;33708;49.466;11.176;2022-09-27T17:51:50;6.60;;;1.80;;
4698;SDS011;33708;49.466;11.176;2022-09-27T17:54:17;6.63;;;1.70;;
4698;SDS011;33708;49.466;11.176;2022-09-27T17:56:44;6.37;;;1.37;;
4698;SDS011;33708;49.466;11.176;2022-09-27T17:59:11;5.63;;;1.40;;
4698;SDS011;33708;49.466;11.176;2022-09-27T18:01:40;6.43;;;1.40;;
4698;SDS011;33708;49.466;11.176;2022-09-27T18:04:07;5.70;;;1.20;;
4698;SDS011;33708;49.466;11.176;2022-09-27T18:06:38;6.30;;;1.40;;
4698;SDS011;33708;49.466;11.176;2022-09-27T18:09:05;6.20;;;1.70;;